createdAt,value
2023-04-25T00:01:26.690Z,22.22
2023-04-25T00:03:54.659Z,22.21
2023-04-25T00:06:22.398Z,22.20
2023-04-25T00:08:49.577Z,22.18
2023-04-25T00:11:16.778Z,22.18
2023-04-25T00:13:44.328Z,22.16
2023-04-25T00:16:12.306Z,22.14
2023-04-25T00:18:39.829Z,22.14
2023-04-25T00:21:07.709Z,22.11
2023-04-25T00:23:37.279Z,22.10
2023-04-25T00:26:04.465Z,22.10
2023-04-25T00:28:31.835Z,22.07
2023-04-25T00:30:59.052Z,22.03
2023-04-25T00:33:26.638Z,22.03
2023-04-25T00:35:53.704Z,21.98
2023-04-25T00:38:21.261Z,21.98
2023-04-25T00:40:48.428Z,21.97
2023-04-25T00:43:15.786Z,21.93
2023-04-25T00:45:44.597Z,21.92
2023-04-25T00:48:11.705Z,21.91
2023-04-25T00:50:38.754Z,21.81
2023-04-25T00:53:06.079Z,21.77
2023-04-25T00:55:45.247Z,21.73
2023-04-25T00:58:12.241Z,21.73
2023-04-25T01:00:39.345Z,21.68
2023-04-25T01:03:06.477Z,21.63
2023-04-25T01:05:33.584Z,21.62
2023-04-25T01:08:01.170Z,21.54
2023-04-25T01:10:28.177Z,21.53
2023-04-25T01:12:55.207Z,21.52
2023-04-25T01:15:22.305Z,21.47
2023-04-25T01:17:50.706Z,21.41
2023-04-25T01:20:18.018Z,21.42
2023-04-25T01:22:44.946Z,21.34
2023-04-25T01:25:11.981Z,21.38
2023-04-25T01:27:39.136Z,21.30
2023-04-25T01:30:06.990Z,21.27
2023-04-25T01:32:39.686Z,21.26
2023-04-25T01:35:10.917Z,21.21
2023-04-25T01:37:38.927Z,21.19
2023-04-25T01:40:06.959Z,21.15
2023-04-25T01:42:34.538Z,21.16
2023-04-25T01:45:01.563Z,21.12
2023-04-25T01:47:30.043Z,21.12
2023-04-25T01:49:58.069Z,21.09
2023-04-25T01:52:25.614Z,21.04
2023-04-25T01:54:52.891Z,21.03
2023-04-25T01:57:19.939Z,21.00
2023-04-25T01:59:47.320Z,20.99
2023-04-25T02:02:14.349Z,20.98
2023-04-25T02:04:41.515Z,20.98
2023-04-25T02:07:08.448Z,20.94
2023-04-25T02:09:35.261Z,20.94
2023-04-25T02:12:03.262Z,20.91
2023-04-25T02:14:30.141Z,20.89
2023-04-25T02:16:57.084Z,20.87
2023-04-25T02:19:23.989Z,20.88
2023-04-25T02:21:50.770Z,20.88
2023-04-25T02:24:17.891Z,20.84
2023-04-25T02:26:45.373Z,20.82
2023-04-25T02:29:12.170Z,20.85
2023-04-25T02:31:38.957Z,20.79
2023-04-25T02:34:08.352Z,20.75
2023-04-25T02:36:36.734Z,20.73
2023-04-25T02:39:04.434Z,20.73
2023-04-25T02:41:31.376Z,20.70
2023-04-25T02:43:58.394Z,20.68
2023-04-25T02:46:37.755Z,20.65
2023-04-25T02:49:06.478Z,20.65
2023-04-25T02:51:33.908Z,20.62
2023-04-25T02:54:00.702Z,20.59
2023-04-25T02:56:28.064Z,20.59
2023-04-25T02:58:54.972Z,20.56
2023-04-25T03:01:21.904Z,20.55
2023-04-25T03:03:49.001Z,20.55
2023-04-25T03:06:17.130Z,20.49
2023-04-25T03:08:44.201Z,20.52
2023-04-25T03:11:11.686Z,20.48
2023-04-25T03:13:38.549Z,20.47
2023-04-25T03:16:05.818Z,20.44
2023-04-25T03:18:32.883Z,20.43
2023-04-25T03:20:59.735Z,20.44
2023-04-25T03:23:27.297Z,20.39
2023-04-25T03:25:54.112Z,20.42
2023-04-25T03:28:21.484Z,20.41
2023-04-25T03:30:48.350Z,20.36
2023-04-25T03:33:17.698Z,20.35
2023-04-25T03:35:44.514Z,20.38
2023-04-25T03:38:11.320Z,20.31
2023-04-25T03:40:38.146Z,20.28
2023-04-25T03:43:08.160Z,20.27
2023-04-25T03:45:34.956Z,20.22
2023-04-25T03:48:01.944Z,20.21
2023-04-25T03:50:28.803Z,20.20
2023-04-25T03:52:55.587Z,20.17
2023-04-25T03:55:22.303Z,20.17
2023-04-25T03:57:49.060Z,20.14
2023-04-25T04:00:16.114Z,20.12
2023-04-25T04:02:45.161Z,20.11
2023-04-25T04:05:12.586Z,20.07
2023-04-25T04:07:41.393Z,20.04
2023-04-25T04:10:08.898Z,20.04
2023-04-25T04:12:35.694Z,20.03
2023-04-25T04:15:05.033Z,19.99
2023-04-25T04:17:32.079Z,19.98
2023-04-25T04:19:59.793Z,19.98
2023-04-25T04:22:26.795Z,19.95
2023-04-25T04:24:54.104Z,19.93
2023-04-25T04:27:21.002Z,19.92
2023-04-25T04:29:47.942Z,19.90
2023-04-25T04:32:15.263Z,19.87
2023-04-25T04:34:42.703Z,19.84
2023-04-25T04:37:09.526Z,19.83
2023-04-25T04:39:36.455Z,19.82
2023-04-25T04:42:03.352Z,19.81
2023-04-25T04:44:33.849Z,19.81
2023-04-25T04:47:01.026Z,19.79
2023-04-25T04:49:27.925Z,19.79
2023-04-25T04:51:57.877Z,19.83
2023-04-25T04:54:26.205Z,19.90
2023-04-25T04:56:53.786Z,19.96
2023-04-25T04:59:20.548Z,20.02
2023-04-25T05:01:48.136Z,20.07
2023-04-25T05:04:15.154Z,20.11
2023-04-25T05:06:41.988Z,20.16
2023-04-25T05:09:08.821Z,20.20
2023-04-25T05:11:38.139Z,20.25
2023-04-25T05:14:04.968Z,20.32
2023-04-25T05:16:31.948Z,20.37
2023-04-25T05:18:58.876Z,20.43
2023-04-25T05:21:25.654Z,20.48
2023-04-25T05:23:52.837Z,20.53
2023-04-25T05:26:19.961Z,20.58
2023-04-25T05:28:46.929Z,20.63
2023-04-25T05:31:14.202Z,20.67
2023-04-25T05:33:41.008Z,20.73
2023-04-25T05:36:08.293Z,20.77
2023-04-25T05:38:35.248Z,20.80
2023-04-25T05:41:02.256Z,20.84
2023-04-25T05:43:29.145Z,20.87
2023-04-25T05:45:56.112Z,20.91
2023-04-25T05:48:23.104Z,20.94
2023-04-25T05:50:49.983Z,20.96
2023-04-25T05:53:16.805Z,20.97
2023-04-25T05:55:43.654Z,21.00
2023-04-25T05:58:10.476Z,21.01
2023-04-25T06:00:37.648Z,21.03
2023-04-25T06:03:11.082Z,21.05
2023-04-25T06:05:38.335Z,21.04
2023-04-25T06:08:05.275Z,21.05
2023-04-25T06:10:34.428Z,21.08
2023-04-25T06:13:01.259Z,21.08
2023-04-25T06:15:29.047Z,21.09
2023-04-25T06:17:56.743Z,21.10
2023-04-25T06:20:25.766Z,21.11
2023-04-25T06:22:54.057Z,21.12
2023-04-25T06:25:21.578Z,21.11
2023-04-25T06:27:48.528Z,21.09
2023-04-25T06:30:15.483Z,20.81
2023-04-25T06:32:42.858Z,20.64
2023-04-25T06:35:10.275Z,20.78
2023-04-25T06:37:37.162Z,20.83
2023-04-25T06:40:04.265Z,20.83
2023-04-25T06:42:31.452Z,20.88
2023-04-25T06:44:58.353Z,20.89
2023-04-25T06:47:25.222Z,20.97
2023-04-25T06:49:54.553Z,20.99
2023-04-25T06:52:21.505Z,21.00
2023-04-25T06:54:48.647Z,21.05
2023-04-25T06:57:18.067Z,21.08
2023-04-25T06:59:44.951Z,21.13
2023-04-25T07:02:11.942Z,21.17
2023-04-25T07:04:39.257Z,21.19
2023-04-25T07:07:06.331Z,21.26
2023-04-25T07:09:35.323Z,21.29
2023-04-25T07:12:03.930Z,21.30
2023-04-25T07:14:31.389Z,21.35
2023-04-25T07:16:58.458Z,21.37
2023-04-25T07:19:27.971Z,21.40
2023-04-25T07:21:55.180Z,21.40
2023-04-25T07:24:22.047Z,21.47
2023-04-25T07:26:49.030Z,21.51
2023-04-25T07:29:16.047Z,21.55
2023-04-25T07:31:43.036Z,21.60
2023-04-25T07:34:10.067Z,21.62
2023-04-25T07:36:37.043Z,21.67
2023-04-25T07:39:04.742Z,21.67
2023-04-25T07:41:31.896Z,21.72
2023-04-25T07:43:58.895Z,21.73
2023-04-25T07:46:25.938Z,21.75
2023-04-25T07:48:53.362Z,21.74
2023-04-25T07:51:21.269Z,21.73
2023-04-25T07:53:50.206Z,21.76
2023-04-25T07:56:17.883Z,21.76
2023-04-25T07:58:44.953Z,21.77
2023-04-25T08:01:11.936Z,21.78
2023-04-25T08:03:43.230Z,21.77
2023-04-25T08:06:10.972Z,21.78
2023-04-25T08:08:40.545Z,21.84
2023-04-25T08:11:10.442Z,21.86
2023-04-25T08:13:37.375Z,21.86
2023-04-25T08:16:04.615Z,21.86
2023-04-25T08:18:43.457Z,21.89
2023-04-25T08:21:12.831Z,21.90
2023-04-25T08:23:40.170Z,21.94
2023-04-25T08:26:09.468Z,21.92
2023-04-25T08:28:37.132Z,21.97
2023-04-25T08:31:07.326Z,21.94
2023-04-25T08:33:38.197Z,21.97
2023-04-25T08:36:05.469Z,21.95
2023-04-25T08:38:32.974Z,21.95
2023-04-25T08:41:01.110Z,21.99
2023-04-25T08:43:30.607Z,21.99
2023-04-25T08:46:00.501Z,22.00
2023-04-25T08:48:28.728Z,21.97
2023-04-25T08:50:56.560Z,21.99
2023-04-25T08:53:26.749Z,22.01
2023-04-25T08:55:57.725Z,22.01
2023-04-25T08:58:24.846Z,21.99
2023-04-25T09:00:53.201Z,21.98
2023-04-25T09:03:40.079Z,21.95
2023-04-25T09:06:07.302Z,21.95
2023-04-25T09:08:34.455Z,21.98
2023-04-25T09:11:01.357Z,21.96
2023-04-25T09:13:29.842Z,22.02
2023-04-25T09:15:58.262Z,22.05
2023-04-25T09:18:30.756Z,22.06
2023-04-25T09:21:13.677Z,22.13
2023-04-25T09:23:42.804Z,22.16
2023-04-25T09:26:10.755Z,22.20
2023-04-25T09:28:39.268Z,22.21
2023-04-25T09:31:06.869Z,22.25
2023-04-25T09:33:34.978Z,22.29
2023-04-25T09:36:04.884Z,22.30
2023-04-25T09:38:32.812Z,22.36
2023-04-25T09:41:08.164Z,22.38
2023-04-25T09:43:35.602Z,22.43
2023-04-25T09:46:02.969Z,22.44
2023-04-25T09:48:31.040Z,22.42
2023-04-25T09:51:07.766Z,22.41
2023-04-25T09:53:36.156Z,22.43
2023-04-25T09:56:05.603Z,22.47
2023-04-25T09:58:33.418Z,22.47
2023-04-25T10:01:03.163Z,22.52
2023-04-25T10:03:32.605Z,22.50
2023-04-25T10:06:01.855Z,22.51
2023-04-25T10:08:33.618Z,22.53
2023-04-25T10:11:02.530Z,22.57
2023-04-25T10:13:30.459Z,22.58
2023-04-25T10:15:59.504Z,22.59
2023-04-25T10:18:28.167Z,22.55
2023-04-25T10:20:56.337Z,22.56
2023-04-25T10:23:23.537Z,22.59
2023-04-25T10:25:52.192Z,22.60
2023-04-25T10:28:22.325Z,22.59
2023-04-25T10:31:00.059Z,22.53
2023-04-25T10:33:36.718Z,22.49
2023-04-25T10:36:10.949Z,22.52
2023-04-25T10:38:39.121Z,22.49
2023-04-25T10:41:07.050Z,22.43
2023-04-25T10:43:43.868Z,22.48
2023-04-25T10:46:15.154Z,22.43
2023-04-25T10:48:47.266Z,22.39
2023-04-25T10:51:18.720Z,22.44
2023-04-25T10:53:46.598Z,22.42
2023-04-25T10:56:23.689Z,22.41
2023-04-25T10:58:52.185Z,22.36
2023-04-25T11:01:24.005Z,22.40
2023-04-25T11:06:48.585Z,22.35
2023-04-25T11:09:16.216Z,22.29
2023-04-25T11:11:43.324Z,22.24
2023-04-25T11:14:10.884Z,22.21
2023-04-25T11:16:38.310Z,22.18
2023-04-25T11:19:05.767Z,22.17
2023-04-25T11:21:33.588Z,22.26
2023-04-25T11:24:01.301Z,22.35
2023-04-25T11:26:28.488Z,22.43
2023-04-25T11:28:58.880Z,22.46
2023-04-25T11:31:27.257Z,22.54
2023-04-25T11:33:56.810Z,22.60
2023-04-25T11:36:24.336Z,22.63
2023-04-25T11:38:53.285Z,22.69
2023-04-25T11:41:20.644Z,22.76
2023-04-25T11:43:48.006Z,22.76
2023-04-25T11:46:15.195Z,22.80
2023-04-25T11:48:43.617Z,22.85
2023-04-25T11:53:42.858Z,22.84
2023-04-25T11:56:12.855Z,22.90
2023-04-25T11:58:49.522Z,22.94
2023-04-25T12:01:29.915Z,22.91
2023-04-25T12:03:59.032Z,22.93
2023-04-25T12:06:28.226Z,22.92
2023-04-25T12:09:05.776Z,22.99
2023-04-25T12:11:34.410Z,23.00
2023-04-25T12:14:05.585Z,22.98
2023-04-25T12:16:43.079Z,22.95
2023-04-25T12:19:10.528Z,22.97
2023-04-25T12:21:46.984Z,23.00
2023-04-25T12:24:27.147Z,22.99
2023-04-25T12:26:56.030Z,22.94
2023-04-25T12:29:24.955Z,22.94
2023-04-25T12:31:56.268Z,22.90
2023-04-25T12:34:24.538Z,22.83
2023-04-25T12:36:55.696Z,22.75
2023-04-25T12:39:24.092Z,22.74
2023-04-25T12:41:52.252Z,22.74
2023-04-25T12:44:19.703Z,22.70
2023-04-25T12:46:47.215Z,22.66
2023-04-25T12:49:18.602Z,22.59
2023-04-25T12:51:46.801Z,22.53
2023-04-25T12:54:15.783Z,22.56
2023-04-25T12:56:43.654Z,22.54
2023-04-25T12:59:11.132Z,22.52
2023-04-25T13:01:46.093Z,22.56
2023-04-25T13:04:13.385Z,22.52
2023-04-25T13:06:40.521Z,22.45
2023-04-25T13:09:08.661Z,22.43
2023-04-25T13:11:36.035Z,22.40
2023-04-25T13:14:03.928Z,22.37
2023-04-25T13:16:31.356Z,22.31
2023-04-25T13:18:58.565Z,22.30
2023-04-25T13:21:25.530Z,22.24
2023-04-25T13:23:52.931Z,22.20
2023-04-25T13:26:20.579Z,22.15
2023-04-25T13:28:47.643Z,22.14
2023-04-25T13:31:14.887Z,22.07
2023-04-25T13:33:42.022Z,22.06
2023-04-25T13:36:09.140Z,22.04
2023-04-25T13:38:36.414Z,22.01
2023-04-25T13:41:03.729Z,22.01
2023-04-25T13:43:31.050Z,21.99
2023-04-25T13:45:58.019Z,21.95
2023-04-25T13:48:25.894Z,21.93
2023-04-25T13:50:53.123Z,21.91
2023-04-25T13:53:20.283Z,21.86
2023-04-25T13:55:47.856Z,21.84
2023-04-25T13:58:14.973Z,21.82
2023-04-25T14:00:44.681Z,21.78
2023-04-25T14:03:12.212Z,21.78
2023-04-25T14:05:40.483Z,21.73
2023-04-25T14:08:09.851Z,21.71
2023-04-25T14:10:37.135Z,21.70
2023-04-25T14:13:04.936Z,21.66
2023-04-25T14:15:33.680Z,21.62
2023-04-25T14:18:01.553Z,21.60
2023-04-25T14:20:45.187Z,21.57
2023-04-25T14:23:12.403Z,21.55
2023-04-25T14:25:43.527Z,21.54
2023-04-25T14:28:10.961Z,21.49
2023-04-25T14:30:38.326Z,21.49
2023-04-25T14:33:12.784Z,21.47
2023-04-25T14:35:43.404Z,21.44
2023-04-25T14:38:10.919Z,21.45
2023-04-25T14:40:39.178Z,21.40
2023-04-25T14:43:06.578Z,21.38
2023-04-25T14:45:33.881Z,21.38
2023-04-25T14:48:01.356Z,21.37
2023-04-25T14:50:31.912Z,21.35
2023-04-25T14:53:01.283Z,21.34
2023-04-25T14:55:28.825Z,21.30
2023-04-25T14:57:57.629Z,21.28
2023-04-25T15:00:27.937Z,21.25
2023-04-25T15:03:03.081Z,21.24
2023-04-25T15:05:42.403Z,21.22
2023-04-25T15:08:10.015Z,21.20
2023-04-25T15:10:44.416Z,21.17
2023-04-25T15:13:12.169Z,21.14
2023-04-25T15:15:39.444Z,21.12
2023-04-25T15:18:06.827Z,21.14
2023-04-25T15:23:23.281Z,21.18
2023-04-25T15:25:52.261Z,21.20
2023-04-25T15:28:19.712Z,21.27
2023-04-25T15:30:48.766Z,21.35
2023-04-25T15:33:35.124Z,21.43
2023-04-25T15:36:21.575Z,21.48
2023-04-25T15:41:29.929Z,21.61
2023-04-25T15:43:57.171Z,21.67
2023-04-25T15:46:24.529Z,21.74
2023-04-25T15:48:51.688Z,21.80
2023-04-25T15:51:18.709Z,21.85
2023-04-25T15:53:45.609Z,21.92
2023-04-25T15:56:12.730Z,21.97
2023-04-25T15:58:40.021Z,22.02
2023-04-25T16:01:07.257Z,22.05
2023-04-25T16:03:36.611Z,22.11
2023-04-25T16:06:04.917Z,22.16
2023-04-25T16:08:34.685Z,22.20
2023-04-25T16:11:06.144Z,22.26
2023-04-25T16:13:34.176Z,22.29
2023-04-25T16:16:02.190Z,22.34
2023-04-25T16:18:29.492Z,22.39
2023-04-25T16:20:56.515Z,22.43
2023-04-25T16:23:23.884Z,22.44
2023-04-25T16:25:51.592Z,22.47
2023-04-25T16:28:19.248Z,22.47
2023-04-25T16:30:56.254Z,22.48
2023-04-25T16:33:23.507Z,22.51
2023-04-25T16:35:52.942Z,22.52
2023-04-25T16:38:20.348Z,22.51
2023-04-25T16:40:51.611Z,22.52
2023-04-25T16:43:24.612Z,22.52
2023-04-25T16:45:59.106Z,22.54
2023-04-25T16:48:26.697Z,22.58
2023-04-25T16:54:22.246Z,22.57
2023-04-25T16:56:49.465Z,22.60
2023-04-25T16:59:19.251Z,22.67
2023-04-25T17:02:07.207Z,22.74
2023-04-25T17:04:47.155Z,22.80
2023-04-25T17:07:32.237Z,22.85
2023-04-25T17:10:00.363Z,22.90
2023-04-25T17:12:45.385Z,22.90
2023-04-25T17:15:47.142Z,22.95
2023-04-25T17:18:17.751Z,22.96
2023-04-25T17:20:51.814Z,22.98
2023-04-25T17:26:03.848Z,22.99
2023-04-25T17:28:36.860Z,23.01
2023-04-25T17:34:00.210Z,23.01
2023-04-25T17:36:28.373Z,22.99
2023-04-25T17:38:56.030Z,22.98
2023-04-25T17:41:23.372Z,22.98
2023-04-25T17:43:50.973Z,22.95
2023-04-25T17:46:21.976Z,22.93
2023-04-25T17:48:58.182Z,22.88
2023-04-25T17:51:25.669Z,22.87
2023-04-25T17:53:53.853Z,22.86
2023-04-25T17:56:27.123Z,22.79
2023-04-25T17:58:55.280Z,22.76
2023-04-25T18:01:23.324Z,22.76
2023-04-25T18:03:54.296Z,22.71
2023-04-25T18:06:21.860Z,22.66
2023-04-25T18:08:50.157Z,22.66
2023-04-25T18:11:18.247Z,22.67
2023-04-25T18:13:48.914Z,22.68
2023-04-25T18:16:16.451Z,22.68
2023-04-25T18:18:44.783Z,22.66
2023-04-25T18:21:12.413Z,22.63
2023-04-25T18:23:39.707Z,22.59
2023-04-25T18:26:06.846Z,22.60
2023-04-25T18:28:34.927Z,22.57
2023-04-25T18:31:07.168Z,22.56
2023-04-25T18:33:34.407Z,22.51
2023-04-25T18:36:02.011Z,22.49
2023-04-25T18:38:35.673Z,22.45
2023-04-25T18:41:18.385Z,22.43
2023-04-25T18:43:52.300Z,22.39
2023-04-25T18:46:23.009Z,22.36
2023-04-25T18:48:51.935Z,22.34
2023-04-25T18:51:19.787Z,22.30
2023-04-25T18:53:47.450Z,22.23
2023-04-25T18:56:15.712Z,22.17
2023-04-25T18:58:43.044Z,22.13
2023-04-25T19:01:10.872Z,22.09
2023-04-25T19:03:38.202Z,22.08
2023-04-25T19:06:05.587Z,22.03
2023-04-25T19:08:32.874Z,22.00
2023-04-25T19:11:07.528Z,21.97
2023-04-25T19:13:41.229Z,21.94
2023-04-25T19:16:08.450Z,21.92
2023-04-25T19:18:35.691Z,21.91
2023-04-25T19:21:04.473Z,21.86
2023-04-25T19:23:32.165Z,21.86
2023-04-25T19:25:59.142Z,21.79
2023-04-25T19:28:26.890Z,21.76
2023-04-25T19:30:57.128Z,21.75
2023-04-25T19:33:24.053Z,21.70
2023-04-25T19:35:51.290Z,21.68
2023-04-25T19:38:18.424Z,21.65
2023-04-25T19:40:45.445Z,21.63
2023-04-25T19:43:12.894Z,21.61
2023-04-25T19:45:40.310Z,21.58
2023-04-25T19:48:09.246Z,21.55
2023-04-25T19:50:36.394Z,21.53
2023-04-25T19:53:04.739Z,21.50
2023-04-25T19:55:31.918Z,21.48
2023-04-25T19:57:59.106Z,21.44
2023-04-25T20:00:26.324Z,21.43
2023-04-25T20:02:56.099Z,21.41
2023-04-25T20:05:23.964Z,21.36
2023-04-25T20:07:50.887Z,21.37
2023-04-25T20:10:18.018Z,21.34
2023-04-25T20:12:45.225Z,21.32
2023-04-25T20:15:12.682Z,21.28
2023-04-25T20:17:42.853Z,21.23
2023-04-25T20:20:11.523Z,21.22
2023-04-25T20:22:40.704Z,21.21
2023-04-25T20:25:08.955Z,21.18
2023-04-25T20:27:38.565Z,21.15
2023-04-25T20:30:08.586Z,21.14
2023-04-25T20:32:35.982Z,21.13
2023-04-25T20:35:04.372Z,21.10
2023-04-25T20:37:32.491Z,21.09
2023-04-25T20:40:00.256Z,21.05
2023-04-25T20:42:27.318Z,21.03
2023-04-25T20:44:54.971Z,21.01
2023-04-25T20:47:24.413Z,20.96
2023-04-25T20:49:51.614Z,20.97
2023-04-25T20:52:19.164Z,20.94
2023-04-25T20:54:50.823Z,20.92
2023-04-25T20:57:18.143Z,20.88
2023-04-25T20:59:45.198Z,20.89
2023-04-25T21:02:12.902Z,20.86
2023-04-25T21:04:39.933Z,20.80
2023-04-25T21:07:06.896Z,20.79
2023-04-25T21:09:33.816Z,20.78
2023-04-25T21:12:00.675Z,20.75
2023-04-25T21:14:27.641Z,20.72
2023-04-25T21:16:54.905Z,20.70
2023-04-25T21:19:21.980Z,20.68
2023-04-25T21:21:49.075Z,20.69
2023-04-25T21:24:16.833Z,20.65
2023-04-25T21:26:43.897Z,20.62
2023-04-25T21:29:10.972Z,20.59
2023-04-25T21:31:39.111Z,20.57
2023-04-25T21:34:07.597Z,20.55
2023-04-25T21:36:34.799Z,20.56
2023-04-25T21:39:01.929Z,20.55
2023-04-25T21:41:29.053Z,20.51
2023-04-25T21:43:56.340Z,20.47
2023-04-25T21:46:24.896Z,20.46
2023-04-25T21:48:52.845Z,20.44
2023-04-25T21:51:20.392Z,20.42
2023-04-25T21:53:47.295Z,20.40
2023-04-25T21:56:14.131Z,20.38
2023-04-25T21:58:41.190Z,20.36
2023-04-25T22:01:08.241Z,20.37
2023-04-25T22:03:39.688Z,20.37
2023-04-25T22:06:06.799Z,20.42
2023-04-25T22:08:33.642Z,20.51
2023-04-25T22:11:02.893Z,20.57
2023-04-25T22:13:29.936Z,20.62
2023-04-25T22:15:56.924Z,20.66
2023-04-25T22:18:23.857Z,20.69
2023-04-25T22:20:50.814Z,20.72
2023-04-25T22:23:17.696Z,20.75
2023-04-25T22:25:44.751Z,20.80
2023-04-25T22:28:12.982Z,20.84
2023-04-25T22:30:40.151Z,20.89
2023-04-25T22:33:07.362Z,20.93
2023-04-25T22:35:34.417Z,20.98
2023-04-25T22:38:01.977Z,21.04
2023-04-25T22:40:28.993Z,21.10
2023-04-25T22:42:55.915Z,21.15
2023-04-25T22:45:22.842Z,21.20
2023-04-25T22:47:49.761Z,21.26
2023-04-25T22:50:17.422Z,21.31
2023-04-25T22:52:44.646Z,21.37
2023-04-25T22:55:13.385Z,21.42
2023-04-25T22:57:40.722Z,21.47
2023-04-25T23:00:15.534Z,21.49
2023-04-25T23:02:43.234Z,21.53
2023-04-25T23:05:10.120Z,21.56
2023-04-25T23:07:36.966Z,21.60
2023-04-25T23:10:03.976Z,21.63
2023-04-25T23:12:30.780Z,21.65
2023-04-25T23:14:57.689Z,21.68
2023-04-25T23:17:24.589Z,21.70
2023-04-25T23:19:51.499Z,21.71
2023-04-25T23:22:18.469Z,21.74
2023-04-25T23:24:45.339Z,21.76
2023-04-25T23:27:12.220Z,21.78
2023-04-25T23:29:40.847Z,21.79
2023-04-25T23:32:09.081Z,21.80
2023-04-25T23:34:35.926Z,21.82
2023-04-25T23:37:04.781Z,21.82
2023-04-25T23:39:31.567Z,21.83
2023-04-25T23:41:58.426Z,21.84
2023-04-25T23:44:25.318Z,21.84
2023-04-25T23:46:52.226Z,21.86
2023-04-25T23:49:19.273Z,21.86
2023-04-25T23:51:46.728Z,21.86
2023-04-25T23:54:13.798Z,21.86
2023-04-25T23:56:40.592Z,21.85
2023-04-25T23:59:07.614Z,21.86
